createdAt,value
2019-03-01T00:00:29.731Z,59.60
2019-03-01T00:02:55.900Z,63.07
2019-03-01T00:05:34.534Z,63.03
2019-03-01T00:08:14.390Z,62.00
2019-03-01T00:11:17.553Z,61.57
2019-03-01T00:13:53.242Z,62.13
2019-03-01T00:16:37.805Z,60.33
2019-03-01T00:19:14.095Z,58.20
2019-03-01T00:22:00.484Z,58.67
2019-03-01T00:24:50.056Z,62.47
2019-03-01T00:27:36.092Z,61.70
2019-03-01T00:30:26.007Z,62.10
2019-03-01T00:32:58.433Z,63.53
2019-03-01T00:35:31.235Z,62.47
2019-03-01T00:38:21.738Z,61.77
2019-03-01T00:40:54.240Z,60.93
2019-03-01T00:43:36.039Z,66.27
2019-03-01T00:46:02.075Z,65.20
2019-03-01T00:48:28.049Z,64.73
2019-03-01T00:50:53.879Z,64.23
2019-03-01T00:53:20.008Z,64.63
2019-03-01T00:55:45.970Z,65.23
2019-03-01T00:58:11.810Z,64.40
2019-03-01T01:00:41.533Z,65.07
2019-03-01T01:03:07.490Z,64.47
2019-03-01T01:05:33.462Z,64.47
2019-03-01T01:07:59.565Z,63.87
2019-03-01T01:10:25.493Z,63.07
2019-03-01T01:12:51.471Z,65.77
2019-03-01T01:15:17.496Z,64.60
2019-03-01T01:17:43.329Z,63.20
2019-03-01T01:20:09.425Z,64.37
2019-03-01T01:22:35.271Z,64.57
2019-03-01T01:25:01.174Z,65.90
2019-03-01T01:27:27.056Z,63.23
2019-03-01T01:29:52.880Z,64.57
2019-03-01T01:32:18.809Z,65.67
2019-03-01T01:34:44.678Z,63.60
2019-03-01T01:37:10.495Z,63.30
2019-03-01T01:39:36.334Z,63.70
2019-03-01T01:42:04.271Z,64.73
2019-03-01T01:44:30.105Z,64.67
2019-03-01T01:46:55.912Z,64.87
2019-03-01T01:49:21.753Z,64.03
2019-03-01T01:51:47.558Z,66.10
2019-03-01T01:54:13.423Z,63.07
2019-03-01T01:56:39.241Z,66.80
2019-03-01T01:59:05.063Z,66.23
2019-03-01T02:01:31.222Z,65.40
2019-03-01T02:03:57.049Z,66.83
2019-03-01T02:06:22.993Z,65.17
2019-03-01T02:08:49.018Z,65.87
2019-03-01T02:11:15.029Z,65.17
2019-03-01T02:13:40.848Z,63.77
2019-03-01T02:16:06.816Z,62.90
2019-03-01T02:18:32.617Z,63.43
2019-03-01T02:20:58.477Z,63.80
2019-03-01T02:23:24.343Z,64.27
2019-03-01T02:25:50.259Z,62.57
2019-03-01T02:28:16.076Z,65.00
2019-03-01T02:30:45.764Z,65.30
2019-03-01T02:33:11.589Z,65.33
2019-03-01T02:35:37.413Z,67.20
2019-03-01T02:38:03.243Z,64.77
2019-03-01T02:40:29.063Z,68.13
2019-03-01T02:42:55.055Z,69.10
2019-03-01T02:45:21.031Z,68.10
2019-03-01T02:47:46.936Z,68.57
2019-03-01T02:50:14.896Z,68.97
2019-03-01T02:52:40.727Z,69.00
2019-03-01T02:55:09.353Z,66.77
2019-03-01T02:57:35.195Z,66.00
2019-03-01T03:00:01.157Z,64.93
2019-03-01T03:02:27.110Z,68.50
2019-03-01T03:04:52.942Z,63.07
2019-03-01T03:07:23.639Z,64.87
2019-03-01T03:09:49.656Z,65.47
2019-03-01T03:12:15.478Z,67.73
2019-03-01T03:14:41.563Z,66.60
2019-03-01T03:17:07.502Z,66.27
2019-03-01T03:19:33.331Z,67.40
2019-03-01T03:22:02.647Z,63.00
2019-03-01T03:24:28.506Z,65.47
2019-03-01T03:26:54.355Z,64.23
2019-03-01T03:29:20.207Z,64.90
2019-03-01T03:31:46.154Z,68.17
2019-03-01T03:34:12.045Z,67.33
2019-03-01T03:36:37.874Z,67.83
2019-03-01T03:39:05.020Z,67.07
2019-03-01T03:41:31.002Z,66.17
2019-03-01T03:43:56.826Z,68.93
2019-03-01T03:46:22.660Z,67.80
2019-03-01T03:48:48.627Z,68.00
2019-03-01T03:51:14.571Z,67.23
2019-03-01T03:53:40.525Z,65.33
2019-03-01T03:56:06.392Z,64.77
2019-03-01T03:58:32.358Z,66.03
2019-03-01T04:00:58.454Z,65.10
2019-03-01T04:03:24.283Z,66.37
2019-03-01T04:05:50.314Z,65.93
2019-03-01T04:08:16.392Z,67.60
2019-03-01T04:10:42.219Z,66.67
2019-03-01T04:13:08.190Z,65.90
2019-03-01T04:15:34.250Z,65.80
2019-03-01T04:18:00.280Z,65.63
2019-03-01T04:20:26.200Z,66.97
2019-03-01T04:22:52.128Z,69.13
2019-03-01T04:25:18.079Z,67.80
2019-03-01T04:27:44.010Z,66.63
2019-03-01T04:30:12.404Z,65.77
2019-03-01T04:32:38.201Z,67.23
2019-03-01T04:35:04.440Z,67.70
2019-03-01T04:37:30.437Z,67.43
2019-03-01T04:39:56.267Z,66.27
2019-03-01T04:42:22.238Z,67.20
2019-03-01T04:44:48.136Z,65.73
2019-03-01T04:47:14.011Z,65.83
2019-03-01T04:49:40.193Z,65.77
2019-03-01T04:52:25.080Z,65.47
2019-03-01T04:54:50.899Z,64.73
2019-03-01T04:57:16.774Z,68.40
2019-03-01T04:59:42.663Z,69.00
2019-03-01T05:02:08.628Z,71.67
2019-03-01T05:04:34.487Z,73.30
2019-03-01T05:07:00.451Z,76.93
2019-03-01T05:09:26.417Z,72.90
2019-03-01T05:11:52.254Z,71.93
2019-03-01T05:14:18.074Z,70.90
2019-03-01T05:16:44.036Z,69.83
2019-03-01T05:19:09.865Z,70.53
2019-03-01T05:21:35.783Z,68.47
2019-03-01T05:24:01.753Z,68.43
2019-03-01T05:26:27.583Z,68.00
2019-03-01T05:28:53.485Z,69.90
2019-03-01T05:31:19.334Z,69.00
2019-03-01T05:33:45.167Z,69.40
2019-03-01T05:36:11.246Z,69.43
2019-03-01T05:38:37.174Z,71.37
2019-03-01T05:41:03.005Z,66.83
2019-03-01T05:43:28.956Z,69.20
2019-03-01T05:45:54.928Z,74.50
2019-03-01T05:48:20.771Z,74.87
2019-03-01T05:50:46.642Z,77.70
2019-03-01T05:53:12.780Z,76.07
2019-03-01T05:55:38.764Z,75.97
2019-03-01T05:58:28.207Z,75.73
2019-03-01T06:01:00.940Z,76.17
2019-03-01T06:03:48.445Z,71.03
2019-03-01T06:06:26.844Z,71.23
2019-03-01T06:09:19.206Z,73.53
2019-03-01T06:12:09.824Z,75.20
2019-03-01T06:15:02.407Z,73.40
2019-03-01T06:17:52.005Z,75.90
2019-03-01T06:20:24.576Z,75.90
2019-03-01T06:23:03.538Z,72.87
2019-03-01T06:25:33.312Z,71.60
2019-03-01T06:28:14.732Z,71.63
2019-03-01T06:30:52.107Z,69.13
2019-03-01T06:33:37.412Z,70.40
2019-03-01T06:36:15.835Z,71.67
2019-03-01T06:38:53.288Z,71.77
2019-03-01T06:41:41.466Z,70.97
2019-03-01T06:44:23.401Z,71.40
2019-03-01T06:47:11.595Z,71.90
2019-03-01T06:49:48.553Z,66.43
2019-03-01T06:52:14.617Z,65.63
2019-03-01T06:54:40.559Z,65.83
2019-03-01T06:57:06.440Z,64.13
2019-03-01T06:59:32.315Z,66.07
2019-03-01T07:01:58.170Z,61.57
2019-03-01T07:04:24.046Z,63.03
2019-03-01T07:06:49.901Z,67.57
2019-03-01T07:09:15.818Z,68.17
2019-03-01T07:11:41.896Z,68.67
2019-03-01T07:14:07.936Z,71.27
2019-03-01T07:16:33.944Z,74.50
2019-03-01T07:18:59.937Z,74.23
2019-03-01T07:21:25.880Z,76.53
2019-03-01T07:23:51.765Z,74.50
2019-03-01T07:26:17.678Z,77.47
2019-03-01T07:28:43.621Z,75.43
2019-03-01T07:31:10.011Z,71.80
2019-03-01T07:33:35.967Z,71.43
2019-03-01T07:36:01.810Z,70.77
2019-03-01T07:38:27.780Z,67.20
2019-03-01T07:40:53.620Z,68.20
2019-03-01T07:43:19.512Z,68.10
2019-03-01T07:45:45.379Z,66.07
2019-03-01T07:48:11.768Z,67.53
2019-03-01T07:50:37.543Z,68.00
2019-03-01T07:53:04.618Z,67.63
2019-03-01T07:55:30.899Z,67.17
2019-03-01T07:57:56.743Z,68.70
2019-03-01T08:00:22.759Z,71.17
2019-03-01T08:02:48.872Z,69.63
2019-03-01T08:05:16.482Z,73.40
2019-03-01T08:07:42.780Z,76.67
2019-03-01T08:10:12.374Z,72.33
2019-03-01T08:12:42.157Z,74.70
2019-03-01T08:15:14.152Z,75.57
2019-03-01T08:17:39.975Z,74.50
2019-03-01T08:20:11.387Z,74.73
2019-03-01T08:22:47.590Z,72.03
2019-03-01T08:25:07.214Z,71.93
2019-03-01T08:27:33.203Z,73.50
2019-03-01T08:29:59.083Z,73.47
2019-03-01T08:32:27.471Z,72.80
2019-03-01T08:34:53.749Z,70.47
2019-03-01T08:37:20.560Z,65.60
2019-03-01T08:39:46.475Z,58.97
2019-03-01T08:42:12.725Z,61.77
2019-03-01T08:44:38.603Z,60.87
2019-03-01T08:47:04.537Z,62.63
2019-03-01T08:49:30.390Z,61.60
2019-03-01T08:51:58.486Z,56.20
2019-03-01T08:54:26.452Z,53.27
2019-03-01T08:56:52.284Z,53.90
2019-03-01T08:59:18.716Z,52.30
2019-03-01T09:01:45.803Z,50.17
2019-03-01T09:04:14.209Z,48.33
2019-03-01T09:06:41.799Z,50.13
2019-03-01T09:09:08.716Z,50.37
2019-03-01T09:11:34.863Z,51.77
2019-03-01T09:14:00.775Z,52.30
2019-03-01T09:16:26.686Z,57.23
2019-03-01T09:18:53.208Z,56.23
2019-03-01T09:21:19.629Z,54.43
2019-03-01T09:23:48.027Z,58.23
2019-03-01T09:26:16.566Z,92.40
2019-03-01T09:28:41.481Z,63.37
2019-03-01T09:31:07.667Z,59.60
2019-03-01T09:33:33.610Z,59.23
2019-03-01T09:36:01.593Z,51.43
2019-03-01T09:38:27.481Z,49.40
2019-03-01T09:40:53.711Z,51.03
2019-03-01T09:43:19.817Z,51.03
2019-03-01T09:45:48.855Z,50.20
2019-03-01T09:48:15.374Z,49.07
2019-03-01T09:50:41.306Z,47.10
2019-03-01T09:53:07.235Z,48.20
2019-03-01T09:55:34.766Z,47.17
2019-03-01T09:58:01.025Z,47.83
2019-03-01T10:00:56.145Z,45.87
2019-03-01T10:03:19.781Z,47.47
2019-03-01T10:05:45.826Z,46.30
2019-03-01T10:08:11.765Z,46.13
2019-03-01T10:10:37.808Z,48.50
2019-03-01T10:13:03.879Z,50.40
2019-03-01T10:15:29.922Z,50.40
2019-03-01T10:17:55.743Z,47.73
2019-03-01T10:20:21.719Z,46.87
2019-03-01T10:22:47.685Z,44.77
2019-03-01T10:25:16.443Z,48.27
2019-03-01T10:27:42.481Z,46.13
2019-03-01T10:30:22.769Z,49.17
2019-03-01T10:32:48.696Z,49.17
2019-03-01T10:35:14.749Z,48.97
2019-03-01T10:37:40.807Z,47.27
2019-03-01T10:40:09.784Z,43.10
2019-03-01T10:42:35.621Z,44.87
2019-03-01T10:45:01.575Z,47.00
2019-03-01T10:47:27.419Z,43.43
2019-03-01T10:49:53.370Z,43.07
2019-03-01T10:52:19.290Z,45.37
2019-03-01T10:54:45.125Z,43.10
2019-03-01T10:57:11.162Z,44.30
2019-03-01T10:59:37.209Z,45.73
2019-03-01T11:02:03.275Z,44.33
2019-03-01T11:04:29.625Z,42.67
2019-03-01T11:06:55.518Z,44.53
2019-03-01T11:09:21.549Z,43.37
2019-03-01T11:11:47.458Z,43.50
2019-03-01T11:14:13.455Z,44.27
2019-03-01T11:16:39.456Z,46.77
2019-03-01T11:19:05.410Z,45.47
2019-03-01T11:21:31.353Z,42.90
2019-03-01T11:23:57.168Z,42.87
2019-03-01T11:26:23.153Z,42.10
2019-03-01T11:28:49.014Z,41.80
2019-03-01T11:31:15.053Z,41.60
2019-03-01T11:33:40.936Z,41.37
2019-03-01T11:36:06.986Z,41.27
2019-03-01T11:38:32.854Z,41.50
2019-03-01T11:40:58.812Z,43.43
2019-03-01T11:43:24.678Z,42.47
2019-03-01T11:45:50.630Z,42.43
2019-03-01T11:48:16.628Z,42.37
2019-03-01T11:50:42.546Z,44.43
2019-03-01T11:53:08.532Z,43.73
2019-03-01T11:55:34.478Z,42.93
2019-03-01T11:58:00.344Z,44.23
2019-03-01T12:00:27.676Z,47.53
2019-03-01T12:02:53.600Z,44.40
2019-03-01T12:05:20.210Z,44.73
2019-03-01T12:07:46.243Z,44.33
2019-03-01T12:10:14.206Z,43.47
2019-03-01T12:12:40.300Z,44.97
2019-03-01T12:15:08.328Z,44.87
2019-03-01T12:17:34.256Z,46.07
2019-03-01T12:20:00.284Z,45.47
2019-03-01T12:22:26.107Z,45.60
2019-03-01T12:24:52.143Z,45.87
2019-03-01T12:27:18.133Z,43.87
2019-03-01T12:29:47.280Z,44.13
2019-03-01T12:32:13.224Z,43.63
2019-03-01T12:34:39.279Z,46.80
2019-03-01T12:37:05.337Z,47.57
2019-03-01T12:39:31.247Z,44.10
2019-03-01T12:41:57.112Z,44.20
2019-03-01T12:44:23.030Z,45.03
2019-03-01T12:46:48.877Z,45.47
2019-03-01T12:49:14.887Z,44.48
2019-03-01T12:51:40.710Z,44.23
2019-03-01T12:54:06.530Z,43.28
2019-03-01T12:56:32.438Z,45.52
2019-03-01T12:58:58.278Z,45.10
2019-03-01T13:01:24.109Z,44.08
2019-03-01T13:03:50.027Z,44.25
2019-03-01T13:06:15.939Z,44.85
2019-03-01T13:08:41.734Z,43.90
2019-03-01T13:11:07.575Z,45.28
2019-03-01T13:13:34.667Z,44.58
2019-03-01T13:16:01.257Z,46.63
2019-03-01T13:18:27.126Z,45.33
2019-03-01T13:20:52.950Z,45.67
2019-03-01T13:23:18.898Z,45.35
2019-03-01T13:25:44.963Z,44.48
2019-03-01T13:28:10.926Z,44.60
2019-03-01T13:30:36.852Z,44.03
2019-03-01T13:33:03.650Z,44.23
2019-03-01T13:35:29.690Z,43.25
2019-03-01T13:37:56.748Z,43.90
2019-03-01T13:40:24.386Z,45.85
2019-03-01T13:42:51.806Z,44.18
2019-03-01T13:45:20.620Z,42.38
2019-03-01T13:47:46.828Z,44.05
2019-03-01T13:50:15.672Z,44.53
2019-03-01T13:52:41.996Z,45.78
2019-03-01T13:55:09.288Z,44.83
2019-03-01T13:57:35.126Z,43.38
2019-03-01T14:00:01.146Z,44.23
2019-03-01T14:02:27.074Z,44.77
2019-03-01T14:04:52.922Z,43.48
2019-03-01T14:07:18.804Z,43.87
2019-03-01T14:09:44.741Z,44.50
2019-03-01T14:12:10.566Z,43.50
2019-03-01T14:14:36.575Z,47.03
2019-03-01T14:17:02.599Z,43.50
2019-03-01T14:19:28.452Z,44.58
2019-03-01T14:21:54.351Z,43.73
2019-03-01T14:24:20.175Z,43.52
2019-03-01T14:26:46.172Z,44.70
2019-03-01T14:29:12.782Z,45.65
2019-03-01T14:31:39.731Z,45.95
2019-03-01T14:34:08.299Z,43.63
2019-03-01T14:36:34.439Z,45.80
2019-03-01T14:39:00.265Z,47.53
2019-03-01T14:41:26.223Z,48.90
2019-03-01T14:43:52.176Z,49.38
2019-03-01T14:46:20.934Z,48.53
2019-03-01T14:48:46.175Z,47.77
2019-03-01T14:51:12.803Z,48.60
2019-03-01T14:53:38.698Z,49.70
2019-03-01T14:56:16.801Z,47.93
2019-03-01T14:59:13.612Z,47.67
2019-03-01T15:01:55.116Z,47.87
2019-03-01T15:04:21.015Z,47.53
2019-03-01T15:06:46.847Z,47.37
2019-03-01T15:09:12.983Z,47.00
2019-03-01T15:11:41.166Z,46.93
2019-03-01T15:14:12.075Z,46.97
2019-03-01T15:16:34.873Z,48.47
2019-03-01T15:19:00.705Z,47.20
2019-03-01T15:21:26.641Z,46.17
2019-03-01T15:23:52.637Z,47.37
2019-03-01T15:26:18.524Z,47.00
2019-03-01T15:28:46.472Z,44.93
2019-03-01T15:31:12.297Z,47.07
2019-03-01T15:33:38.257Z,46.20
2019-03-01T15:36:04.186Z,47.23
2019-03-01T15:38:30.003Z,47.37
2019-03-01T15:40:56.056Z,45.83
2019-03-01T15:43:21.890Z,46.47
2019-03-01T15:45:48.004Z,48.00
2019-03-01T15:48:13.951Z,45.63
2019-03-01T15:50:39.909Z,46.90
2019-03-01T15:53:06.005Z,45.47
2019-03-01T15:55:31.946Z,46.13
2019-03-01T15:57:57.788Z,45.03
2019-03-01T16:00:25.689Z,45.93
2019-03-01T16:02:53.210Z,44.13
2019-03-01T16:05:19.460Z,45.53
2019-03-01T16:07:45.525Z,45.33
2019-03-01T16:10:13.383Z,45.17
2019-03-01T16:12:39.319Z,46.00
2019-03-01T16:15:10.907Z,46.33
2019-03-01T16:17:36.927Z,44.20
2019-03-01T16:20:06.688Z,45.77
2019-03-01T16:22:32.551Z,44.33
2019-03-01T16:24:58.466Z,45.53
2019-03-01T16:27:24.332Z,43.93
2019-03-01T16:29:50.155Z,44.00
2019-03-01T16:32:16.143Z,44.90
2019-03-01T16:34:45.214Z,43.30
2019-03-01T16:37:11.060Z,44.00
2019-03-01T16:39:37.086Z,41.80
2019-03-01T16:42:03.032Z,43.67
2019-03-01T16:44:28.848Z,45.67
2019-03-01T16:46:54.721Z,46.73
2019-03-01T16:49:23.628Z,44.27
2019-03-01T16:51:50.668Z,44.23
2019-03-01T16:54:16.516Z,45.87
2019-03-01T16:56:42.518Z,46.20
2019-03-01T16:59:08.489Z,45.27
2019-03-01T17:01:34.419Z,45.20
2019-03-01T17:04:00.737Z,44.80
2019-03-01T17:06:26.761Z,44.07
2019-03-01T17:08:53.282Z,43.67
2019-03-01T17:11:19.161Z,44.03
2019-03-01T17:13:45.097Z,42.30
2019-03-01T17:16:11.071Z,42.80
2019-03-01T17:18:37.024Z,44.20
2019-03-01T17:21:03.061Z,42.47
2019-03-01T17:23:28.924Z,43.13
2019-03-01T17:25:54.756Z,42.43
2019-03-01T17:28:22.699Z,44.23
2019-03-01T17:30:50.790Z,45.00
2019-03-01T17:33:16.117Z,42.87
2019-03-01T17:35:42.174Z,43.67
2019-03-01T17:38:08.295Z,42.97
2019-03-01T17:40:35.814Z,43.50
2019-03-01T17:43:01.814Z,43.97
2019-03-01T17:45:27.639Z,43.43
2019-03-01T17:47:55.320Z,43.20
2019-03-01T17:50:21.450Z,45.23
2019-03-01T17:52:47.372Z,45.27
2019-03-01T17:55:17.720Z,44.10
2019-03-01T17:57:43.649Z,43.10
2019-03-01T18:00:12.159Z,45.80
2019-03-01T18:02:38.002Z,44.77
2019-03-01T18:05:06.790Z,47.00
2019-03-01T18:07:32.632Z,46.70
2019-03-01T18:09:58.585Z,48.77
2019-03-01T18:12:24.542Z,49.40
2019-03-01T18:14:50.468Z,45.67
2019-03-01T18:17:16.290Z,46.17
2019-03-01T18:19:42.266Z,47.83
2019-03-01T18:22:08.146Z,46.37
2019-03-01T18:24:33.998Z,46.83
2019-03-01T18:26:59.968Z,48.87
2019-03-01T18:29:25.834Z,48.27
2019-03-01T18:31:51.793Z,48.80
2019-03-01T18:34:17.631Z,48.63
2019-03-01T18:36:45.708Z,48.00
2019-03-01T18:39:11.488Z,48.73
2019-03-01T18:41:37.823Z,49.83
2019-03-01T18:44:03.781Z,49.63
2019-03-01T18:46:29.731Z,49.60
2019-03-01T18:48:55.874Z,50.60
2019-03-01T18:51:21.946Z,50.47
2019-03-01T18:53:47.878Z,51.37
2019-03-01T18:56:13.755Z,50.40
2019-03-01T18:58:39.591Z,51.57
2019-03-01T19:01:07.738Z,51.93
2019-03-01T19:03:36.569Z,51.00
2019-03-01T19:06:04.672Z,52.30
2019-03-01T19:08:30.719Z,52.73
2019-03-01T19:10:59.672Z,54.37
2019-03-01T19:13:25.674Z,54.03
2019-03-01T19:15:54.452Z,55.77
2019-03-01T19:18:19.655Z,56.20
2019-03-01T19:20:47.779Z,54.13
2019-03-01T19:23:13.635Z,54.13
2019-03-01T19:25:39.579Z,54.40
2019-03-01T19:28:05.563Z,54.57
2019-03-01T19:30:31.497Z,54.77
2019-03-01T19:32:58.883Z,55.97
2019-03-01T19:35:29.575Z,54.53
2019-03-01T19:37:57.166Z,55.30
2019-03-01T19:40:23.467Z,56.80
2019-03-01T19:42:49.537Z,56.17
2019-03-01T19:45:17.970Z,54.93
2019-03-01T19:47:44.035Z,54.30
2019-03-01T19:50:11.896Z,54.47
2019-03-01T19:52:37.749Z,55.27
2019-03-01T19:55:08.020Z,53.80
2019-03-01T19:57:36.378Z,57.87
2019-03-01T20:00:04.114Z,57.40
2019-03-01T20:02:30.972Z,57.00
2019-03-01T20:04:57.593Z,56.23
2019-03-01T20:07:23.445Z,57.57
2019-03-01T20:09:49.353Z,57.27
2019-03-01T20:12:15.410Z,57.93
2019-03-01T20:14:41.243Z,57.03
2019-03-01T20:17:07.292Z,56.73
2019-03-01T20:19:33.145Z,57.80
2019-03-01T20:21:59.143Z,57.23
2019-03-01T20:24:24.987Z,58.50
2019-03-01T20:26:51.046Z,58.07
2019-03-01T20:29:16.902Z,55.87
2019-03-01T20:31:42.791Z,58.27
2019-03-01T20:34:08.637Z,58.40
2019-03-01T20:36:34.731Z,58.07
2019-03-01T20:39:00.857Z,57.83
2019-03-01T20:41:26.683Z,59.37
2019-03-01T20:43:52.560Z,58.33
2019-03-01T20:46:18.427Z,58.30
2019-03-01T20:48:44.425Z,58.40
2019-03-01T20:51:10.354Z,59.80
2019-03-01T20:53:36.187Z,57.13
2019-03-01T20:56:02.206Z,59.03
2019-03-01T20:58:28.027Z,59.17
2019-03-01T21:00:54.055Z,58.90
2019-03-01T21:03:20.044Z,59.40
2019-03-01T21:05:45.887Z,61.00
2019-03-01T21:08:11.823Z,61.77
2019-03-01T21:10:37.713Z,64.63
2019-03-01T21:13:03.701Z,65.53
2019-03-01T21:15:29.558Z,67.43
2019-03-01T21:17:57.135Z,65.73
2019-03-01T21:20:23.367Z,65.10
2019-03-01T21:22:49.378Z,63.57
2019-03-01T21:25:23.536Z,65.47
2019-03-01T21:27:49.464Z,66.80
2019-03-01T21:30:28.909Z,66.67
2019-03-01T21:32:54.981Z,64.83
2019-03-01T21:35:21.031Z,64.60
2019-03-01T21:37:47.084Z,68.37
2019-03-01T21:40:16.380Z,66.73
2019-03-01T21:42:42.311Z,64.83
2019-03-01T21:45:17.825Z,66.57
2019-03-01T21:47:44.635Z,66.67
2019-03-01T21:50:12.290Z,67.63
2019-03-01T21:52:39.248Z,64.70
2019-03-01T21:55:13.519Z,67.33
2019-03-01T21:57:39.472Z,66.60
2019-03-01T22:00:09.169Z,66.67
2019-03-01T22:02:35.106Z,66.07
2019-03-01T22:05:01.140Z,65.90
2019-03-01T22:07:27.082Z,65.13
2019-03-01T22:09:53.011Z,66.80
2019-03-01T22:12:20.865Z,65.20
2019-03-01T22:14:49.031Z,64.77
2019-03-01T22:17:14.465Z,66.20
2019-03-01T22:19:40.307Z,66.10
2019-03-01T22:22:07.384Z,64.33
2019-03-01T22:24:34.214Z,67.50
2019-03-01T22:27:00.242Z,64.90
2019-03-01T22:29:26.276Z,67.87
2019-03-01T22:31:52.121Z,65.87
2019-03-01T22:34:18.027Z,67.87
2019-03-01T22:36:43.959Z,67.07
2019-03-01T22:39:09.883Z,68.90
2019-03-01T22:41:39.297Z,69.07
2019-03-01T22:44:03.594Z,66.97
2019-03-01T22:46:29.445Z,68.07
2019-03-01T22:48:56.684Z,65.13
2019-03-01T22:51:23.370Z,65.03
2019-03-01T22:53:49.226Z,66.07
2019-03-01T22:56:15.189Z,67.87
2019-03-01T22:58:41.006Z,64.97
2019-03-01T23:01:09.429Z,61.47
2019-03-01T23:03:35.367Z,64.57
2019-03-01T23:06:01.335Z,62.17
2019-03-01T23:08:27.473Z,62.83
2019-03-01T23:10:53.768Z,63.37
2019-03-01T23:13:21.849Z,63.40
2019-03-01T23:15:47.917Z,64.37
2019-03-01T23:18:13.756Z,65.07
2019-03-01T23:20:40.370Z,63.53
2019-03-01T23:23:06.229Z,66.47
2019-03-01T23:25:32.037Z,64.00
2019-03-01T23:27:57.925Z,63.13
2019-03-01T23:30:25.738Z,65.47
2019-03-01T23:32:52.683Z,62.43
2019-03-01T23:35:19.413Z,61.50
2019-03-01T23:37:45.293Z,60.67
2019-03-01T23:40:11.228Z,61.23
2019-03-01T23:42:37.265Z,60.93
2019-03-01T23:45:08.477Z,59.33
2019-03-01T23:47:34.733Z,59.67
2019-03-01T23:50:04.002Z,61.30
2019-03-01T23:52:29.825Z,59.53
2019-03-01T23:54:55.835Z,59.63
2019-03-01T23:57:21.682Z,59.63
2019-03-01T23:59:47.523Z,56.50
